aviador You're here:

KDCM Decoded Metar

in _UNIDENTIFIED
Report Time2017-12-16 10:55:00
UTC Time2017-12-16 11:00:25
Flight Rules vfr VFR
WindCalm
Visibility9999 m
Phenomena:N/A
Clouds:N/A
Expected CloudBase > 1,200 ft AGL from Temp-Dew spread
CeilingNone
Temp-2°C (ISA -16)
Dew Point-5°C (80% RH)
AAT-4.6°C
QNH1023 hPa
Density Alt-1,549 ft
Elevation656 ft
Report Wrong Elevation
Raw Report
METAR KDCM 161055Z AUTO 00000KT 10SM CLR M02/M05 A3022 RMK AO2=

Extra information for KDCM:More info

Metar Taf Metar & Taf Last 4 Metars F.Rules Stats Wind Profile Meteogram Temp Stats Metar ALERT Operation Metar Decoded Social comments